createdAt,value
2023-05-17T00:00:14.315Z,9.56
2023-05-17T00:02:41.103Z,9.59
2023-05-17T00:05:08.152Z,9.69
2023-05-17T00:07:34.627Z,9.61
2023-05-17T00:10:01.101Z,9.60
2023-05-17T00:12:27.551Z,9.62
2023-05-17T00:14:54.324Z,9.58
2023-05-17T00:17:20.887Z,9.61
2023-05-17T00:19:47.391Z,9.54
2023-05-17T00:22:14.222Z,9.59
2023-05-17T00:24:41.012Z,9.54
2023-05-17T00:27:07.576Z,9.50
2023-05-17T00:29:34.050Z,9.48
2023-05-17T00:32:00.514Z,9.44
2023-05-17T00:34:27.249Z,9.45
2023-05-17T00:36:53.697Z,9.43
2023-05-17T00:39:20.353Z,9.45
2023-05-17T00:41:46.915Z,9.38
2023-05-17T00:44:13.393Z,9.28
2023-05-17T00:46:39.959Z,9.33
2023-05-17T00:49:06.640Z,9.31
2023-05-17T00:51:33.549Z,9.28
2023-05-17T00:54:00.564Z,9.28
2023-05-17T00:56:27.337Z,9.30
2023-05-17T00:58:53.889Z,9.16
2023-05-17T01:01:20.753Z,9.29
2023-05-17T01:03:47.625Z,9.30
2023-05-17T01:06:14.782Z,9.24
2023-05-17T01:08:42.159Z,9.21
2023-05-17T01:11:23.733Z,9.05
2023-05-17T01:14:16.346Z,9.18
2023-05-17T01:16:56.017Z,9.17
2023-05-17T01:19:50.184Z,9.29
2023-05-17T01:22:35.158Z,9.29
2023-05-17T01:25:10.475Z,9.28
2023-05-17T01:27:41.228Z,9.28
2023-05-17T01:30:12.026Z,9.23
2023-05-17T01:32:41.363Z,9.37
2023-05-17T01:35:08.693Z,9.33
2023-05-17T01:37:35.209Z,9.20
2023-05-17T01:40:01.864Z,9.25
2023-05-17T01:42:33.311Z,9.31
2023-05-17T01:45:02.843Z,9.36
2023-05-17T01:47:41.998Z,9.28
2023-05-17T01:50:10.267Z,9.31
2023-05-17T01:52:52.799Z,9.35
2023-05-17T01:55:29.973Z,9.44
2023-05-17T01:57:57.629Z,9.43
2023-05-17T02:00:28.951Z,9.48
2023-05-17T02:02:55.878Z,9.54
2023-05-17T02:05:22.466Z,9.56
2023-05-17T02:07:48.966Z,9.41
2023-05-17T02:10:15.765Z,9.45
2023-05-17T02:12:42.545Z,9.62
2023-05-17T02:15:11.927Z,9.65
2023-05-17T02:17:39.629Z,9.72
2023-05-17T02:20:09.660Z,9.64
2023-05-17T02:22:36.262Z,9.61
2023-05-17T02:25:02.966Z,9.74
2023-05-17T02:27:29.458Z,9.66
2023-05-17T02:29:56.086Z,9.69
2023-05-17T02:32:22.976Z,9.82
2023-05-17T02:34:49.945Z,9.71
2023-05-17T02:37:16.455Z,9.65
2023-05-17T02:39:42.922Z,9.62
2023-05-17T02:42:09.412Z,9.77
2023-05-17T02:44:35.975Z,9.69
2023-05-17T02:47:02.583Z,9.62
2023-05-17T02:49:29.153Z,9.61
2023-05-17T02:51:56.126Z,9.74
2023-05-17T02:54:22.694Z,9.79
2023-05-17T02:56:49.225Z,9.81
2023-05-17T02:59:15.920Z,9.80
2023-05-17T03:01:42.554Z,9.83
2023-05-17T03:04:09.215Z,9.76
2023-05-17T03:06:35.808Z,9.84
2023-05-17T03:09:02.406Z,9.86
2023-05-17T03:11:28.886Z,9.75
2023-05-17T03:13:55.806Z,9.82
2023-05-17T03:16:22.483Z,9.94
2023-05-17T03:18:49.117Z,9.92
2023-05-17T03:21:15.704Z,9.89
2023-05-17T03:23:42.168Z,9.98
2023-05-17T03:26:08.690Z,9.97
2023-05-17T03:28:35.311Z,9.90
2023-05-17T03:31:02.027Z,10.04
2023-05-17T03:33:28.675Z,9.98
2023-05-17T03:35:55.496Z,10.07
2023-05-17T03:38:21.982Z,10.09
2023-05-17T03:40:48.553Z,10.03
2023-05-17T03:43:15.092Z,10.07
2023-05-17T03:45:41.593Z,10.10
2023-05-17T03:48:08.246Z,10.02
2023-05-17T03:50:35.007Z,10.07
2023-05-17T03:53:01.680Z,10.09
2023-05-17T03:55:28.358Z,10.09
2023-05-17T03:57:55.013Z,10.02
2023-05-17T04:00:22.038Z,10.01
2023-05-17T04:02:50.631Z,9.85
2023-05-17T04:05:18.214Z,9.93
2023-05-17T04:07:44.823Z,10.01
2023-05-17T04:10:11.639Z,10.06
2023-05-17T04:12:38.062Z,10.02
2023-05-17T04:15:05.010Z,10.16
2023-05-17T04:17:31.539Z,10.09
2023-05-17T04:19:58.074Z,9.94
2023-05-17T04:22:24.661Z,9.90
2023-05-17T04:24:51.344Z,9.90
2023-05-17T04:27:17.861Z,9.88
2023-05-17T04:29:44.340Z,9.84
2023-05-17T04:32:10.991Z,9.81
2023-05-17T04:34:37.511Z,9.79
2023-05-17T04:37:04.099Z,9.69
2023-05-17T04:39:31.253Z,9.75
2023-05-17T04:41:57.704Z,9.76
2023-05-17T04:44:24.361Z,9.68
2023-05-17T04:46:50.907Z,9.72
2023-05-17T04:49:18.689Z,9.71
2023-05-17T04:51:45.215Z,9.70
2023-05-17T04:54:11.676Z,9.66
2023-05-17T04:56:38.148Z,9.69
2023-05-17T04:59:04.646Z,9.64
2023-05-17T05:01:31.210Z,9.68
2023-05-17T05:03:58.723Z,9.68
2023-05-17T05:06:25.313Z,9.72
2023-05-17T05:08:52.676Z,9.78
2023-05-17T05:11:19.312Z,9.77
2023-05-17T05:13:45.940Z,9.73
2023-05-17T05:16:12.467Z,9.64
2023-05-17T05:18:41.251Z,9.78
2023-05-17T05:21:07.821Z,9.82
2023-05-17T05:23:34.434Z,9.86
2023-05-17T05:26:01.413Z,9.85
2023-05-17T05:28:27.940Z,9.79
2023-05-17T05:31:00.978Z,9.88
2023-05-17T05:33:27.857Z,9.87
2023-05-17T05:35:54.740Z,9.99
2023-05-17T05:38:21.277Z,9.96
2023-05-17T05:40:50.913Z,9.92
2023-05-17T05:43:17.403Z,9.93
2023-05-17T05:45:47.217Z,10.00
2023-05-17T05:48:14.242Z,10.04
2023-05-17T05:50:44.494Z,10.13
2023-05-17T05:53:18.890Z,10.13
2023-05-17T05:55:46.307Z,10.24
2023-05-17T05:58:12.837Z,10.12
2023-05-17T06:00:39.344Z,10.25
2023-05-17T06:03:06.413Z,10.37
2023-05-17T06:05:33.214Z,10.46
2023-05-17T06:07:59.764Z,10.39
2023-05-17T06:10:26.431Z,10.53
2023-05-17T06:12:53.008Z,10.60
2023-05-17T06:15:19.590Z,10.64
2023-05-17T06:17:46.209Z,10.78
2023-05-17T06:20:13.653Z,10.91
2023-05-17T06:22:40.107Z,10.99
2023-05-17T06:25:06.790Z,11.31
2023-05-17T06:27:33.807Z,11.47
2023-05-17T06:30:00.849Z,11.67
2023-05-17T06:32:27.506Z,12.19
2023-05-17T06:34:54.092Z,12.50
2023-05-17T06:37:20.581Z,12.61
2023-05-17T06:39:55.436Z,13.05
2023-05-17T06:42:26.222Z,13.02
2023-05-17T06:44:52.787Z,13.04
2023-05-17T06:47:19.319Z,13.46
2023-05-17T06:49:45.811Z,14.03
2023-05-17T06:52:12.617Z,14.16
2023-05-17T06:54:39.230Z,14.28
2023-05-17T06:57:07.015Z,14.44
2023-05-17T06:59:33.558Z,14.32
2023-05-17T07:02:03.003Z,14.93
2023-05-17T07:04:29.740Z,14.87
2023-05-17T07:06:56.414Z,15.38
2023-05-17T07:09:23.169Z,14.44
2023-05-17T07:11:49.700Z,13.43
2023-05-17T07:14:16.200Z,13.53
2023-05-17T07:16:42.697Z,14.76
2023-05-17T07:19:09.438Z,13.67
2023-05-17T07:21:35.959Z,13.53
2023-05-17T07:24:02.627Z,13.72
2023-05-17T07:26:29.147Z,13.41
2023-05-17T07:28:55.696Z,13.23
2023-05-17T07:31:22.191Z,13.09
2023-05-17T07:33:48.798Z,13.17
2023-05-17T07:36:15.446Z,13.05
2023-05-17T07:38:41.972Z,13.09
2023-05-17T07:41:13.269Z,13.23
2023-05-17T07:43:39.833Z,13.06
2023-05-17T07:46:07.384Z,12.96
2023-05-17T07:48:34.104Z,12.84
2023-05-17T07:51:03.206Z,13.00
2023-05-17T07:53:29.735Z,12.94
2023-05-17T07:55:56.267Z,13.09
2023-05-17T07:58:22.776Z,15.21
2023-05-17T08:00:49.457Z,16.43
2023-05-17T08:03:17.456Z,16.55
2023-05-17T08:05:46.560Z,17.37
2023-05-17T08:08:13.139Z,16.40
2023-05-17T08:10:39.783Z,15.46
2023-05-17T08:13:07.006Z,17.19
2023-05-17T08:15:33.748Z,17.25
2023-05-17T08:18:04.843Z,16.82
2023-05-17T08:20:31.751Z,17.61
2023-05-17T08:23:00.923Z,17.81
2023-05-17T08:25:27.668Z,18.87
2023-05-17T08:27:54.586Z,19.67
2023-05-17T08:30:28.908Z,19.19
2023-05-17T08:32:56.817Z,19.74
2023-05-17T08:35:24.506Z,19.63
2023-05-17T08:37:52.842Z,19.90
2023-05-17T08:40:21.993Z,17.92
2023-05-17T08:42:51.008Z,16.91
2023-05-17T08:45:19.028Z,16.27
2023-05-17T08:47:46.621Z,16.86
2023-05-17T08:50:14.436Z,17.21
2023-05-17T08:52:45.590Z,17.67
2023-05-17T08:55:12.328Z,18.12
2023-05-17T08:57:40.417Z,16.96
2023-05-17T09:00:13.662Z,16.49
2023-05-17T09:02:42.256Z,16.56
2023-05-17T09:05:10.882Z,18.31
2023-05-17T09:07:37.646Z,19.37
2023-05-17T09:10:05.888Z,19.61
2023-05-17T09:12:34.972Z,18.18
2023-05-17T09:15:19.353Z,17.25
2023-05-17T09:17:53.543Z,16.65
2023-05-17T09:20:34.403Z,15.99
2023-05-17T09:23:02.190Z,15.71
2023-05-17T09:25:29.487Z,17.70
2023-05-17T09:28:00.264Z,19.55
2023-05-17T09:30:28.617Z,20.50
2023-05-17T09:32:55.812Z,20.74
2023-05-17T09:35:31.613Z,20.57
2023-05-17T09:38:06.887Z,20.19
2023-05-17T09:40:34.176Z,20.46
2023-05-17T09:43:01.970Z,20.39
2023-05-17T09:45:28.728Z,21.10
2023-05-17T09:47:55.804Z,22.01
2023-05-17T09:50:25.349Z,19.91
2023-05-17T09:52:52.720Z,19.00
2023-05-17T09:55:27.886Z,18.20
2023-05-17T09:58:03.007Z,19.58
2023-05-17T10:00:31.469Z,20.92
2023-05-17T10:02:58.841Z,20.57
2023-05-17T10:05:26.060Z,21.02
2023-05-17T10:07:56.428Z,21.30
2023-05-17T10:10:23.481Z,21.99
2023-05-17T10:12:52.458Z,20.80
2023-05-17T10:15:19.530Z,20.58
2023-05-17T10:17:46.290Z,19.40
2023-05-17T10:20:14.559Z,21.06
2023-05-17T10:22:42.582Z,21.08
2023-05-17T10:25:10.457Z,20.94
2023-05-17T10:27:37.299Z,21.08
2023-05-17T10:30:05.111Z,21.88
2023-05-17T10:32:32.520Z,21.10
2023-05-17T10:35:10.537Z,21.73
2023-05-17T10:37:40.352Z,21.15
2023-05-17T10:40:13.576Z,20.13
2023-05-17T10:42:43.622Z,21.31
2023-05-17T10:45:12.678Z,21.81
2023-05-17T10:47:43.201Z,21.89
2023-05-17T10:50:13.110Z,22.23
2023-05-17T10:52:46.792Z,22.44
2023-05-17T10:55:13.430Z,21.78
2023-05-17T10:57:50.075Z,21.16
2023-05-17T11:00:21.894Z,21.51
2023-05-17T11:02:49.180Z,21.80
2023-05-17T11:05:27.248Z,21.33
2023-05-17T11:08:13.328Z,21.96
2023-05-17T11:10:59.829Z,21.87
2023-05-17T11:13:29.391Z,21.91
2023-05-17T11:16:07.792Z,21.10
2023-05-17T11:18:50.358Z,21.86
2023-05-17T11:21:17.309Z,21.87
2023-05-17T11:23:45.750Z,21.36
2023-05-17T11:26:29.379Z,20.98
2023-05-17T11:29:12.428Z,21.12
2023-05-17T11:31:45.115Z,21.69
2023-05-17T11:34:12.573Z,21.16
2023-05-17T11:36:54.167Z,21.36
2023-05-17T11:39:25.420Z,22.12
2023-05-17T11:41:56.642Z,22.40
2023-05-17T11:44:30.938Z,22.69
2023-05-17T11:47:09.659Z,22.83
2023-05-17T11:49:39.825Z,22.43
2023-05-17T11:52:07.094Z,22.06
2023-05-17T11:54:34.653Z,22.08
2023-05-17T11:57:03.646Z,21.84
2023-05-17T11:59:37.813Z,22.28
2023-05-17T12:02:04.646Z,22.03
2023-05-17T12:04:35.687Z,21.13
2023-05-17T12:07:02.651Z,21.01
2023-05-17T12:09:29.330Z,20.87
2023-05-17T12:11:57.124Z,21.22
2023-05-17T12:14:24.245Z,21.72
2023-05-17T12:16:53.511Z,21.43
2023-05-17T12:19:22.484Z,21.89
2023-05-17T12:21:49.904Z,22.17
2023-05-17T12:24:17.057Z,21.83
2023-05-17T12:26:45.099Z,21.96
2023-05-17T12:29:15.632Z,22.45
2023-05-17T12:31:46.247Z,21.79
2023-05-17T12:34:14.196Z,21.38
2023-05-17T12:36:41.527Z,21.80
2023-05-17T12:39:10.162Z,21.47
2023-05-17T12:41:41.268Z,21.44
2023-05-17T12:44:15.280Z,21.25
2023-05-17T12:46:42.459Z,21.51
2023-05-17T12:49:11.256Z,21.38
2023-05-17T12:51:43.367Z,21.62
2023-05-17T12:54:10.809Z,21.97
2023-05-17T12:56:37.659Z,21.48
2023-05-17T12:59:10.230Z,21.84
2023-05-17T13:01:43.306Z,21.90
2023-05-17T13:04:10.523Z,21.58
2023-05-17T13:06:50.114Z,21.82
2023-05-17T13:09:18.598Z,21.39
2023-05-17T13:11:51.809Z,21.09
2023-05-17T13:14:46.218Z,20.62
2023-05-17T13:17:23.925Z,20.81
2023-05-17T13:19:50.699Z,20.64
2023-05-17T13:22:17.388Z,20.97
2023-05-17T13:24:44.792Z,20.26
2023-05-17T13:27:12.034Z,20.58
2023-05-17T13:29:41.644Z,20.44
2023-05-17T13:32:11.676Z,20.53
2023-05-17T13:34:38.737Z,20.93
2023-05-17T13:37:09.360Z,20.26
2023-05-17T13:39:37.949Z,20.26
2023-05-17T13:42:05.630Z,20.25
2023-05-17T13:44:32.273Z,19.82
2023-05-17T13:46:58.766Z,19.70
2023-05-17T13:49:25.519Z,20.38
2023-05-17T13:51:52.208Z,20.41
2023-05-17T13:54:20.778Z,20.36
2023-05-17T13:56:48.605Z,20.63
2023-05-17T13:59:15.094Z,20.38
2023-05-17T14:01:41.946Z,20.53
2023-05-17T14:04:08.678Z,20.70
2023-05-17T14:06:35.203Z,20.43
2023-05-17T14:09:01.715Z,19.83
2023-05-17T14:11:28.313Z,19.60
2023-05-17T14:13:55.017Z,19.73
2023-05-17T14:16:22.909Z,19.96
2023-05-17T14:18:50.002Z,19.98
2023-05-17T14:21:16.788Z,20.15
2023-05-17T14:23:43.516Z,20.05
2023-05-17T14:26:10.697Z,19.56
2023-05-17T14:28:39.026Z,19.83
2023-05-17T14:31:09.323Z,19.53
2023-05-17T14:33:36.145Z,19.30
2023-05-17T14:36:04.084Z,19.31
2023-05-17T14:38:31.026Z,19.14
2023-05-17T14:40:59.014Z,19.20
2023-05-17T14:43:25.688Z,19.31
2023-05-17T14:45:52.226Z,19.54
2023-05-17T14:48:18.879Z,19.58
2023-05-17T14:50:45.668Z,18.95
2023-05-17T14:53:12.487Z,18.82
2023-05-17T14:55:39.045Z,18.76
2023-05-17T14:58:05.545Z,18.76
2023-05-17T15:00:32.098Z,18.86
2023-05-17T15:02:59.047Z,18.64
2023-05-17T15:05:25.782Z,18.87
2023-05-17T15:07:53.521Z,18.13
2023-05-17T15:10:20.086Z,18.41
2023-05-17T15:12:47.394Z,18.31
2023-05-17T15:15:14.094Z,18.17
2023-05-17T15:17:40.678Z,17.85
2023-05-17T15:20:08.469Z,17.92
2023-05-17T15:22:34.990Z,17.90
2023-05-17T15:25:01.506Z,17.60
2023-05-17T15:27:27.978Z,17.72
2023-05-17T15:29:54.553Z,17.89
2023-05-17T15:32:21.233Z,17.67
2023-05-17T15:34:47.853Z,17.14
2023-05-17T15:37:14.332Z,17.25
2023-05-17T15:39:41.129Z,17.31
2023-05-17T15:42:07.698Z,16.93
2023-05-17T15:44:34.248Z,16.73
2023-05-17T15:47:03.096Z,17.05
2023-05-17T15:49:30.103Z,16.89
2023-05-17T15:51:56.677Z,16.68
2023-05-17T15:54:23.137Z,16.89
2023-05-17T15:56:49.690Z,16.96
2023-05-17T15:59:16.409Z,16.19
2023-05-17T16:01:46.200Z,16.54
2023-05-17T16:04:13.502Z,16.44
2023-05-17T16:06:40.527Z,16.49
2023-05-17T16:09:07.397Z,16.25
2023-05-17T16:11:33.962Z,16.33
2023-05-17T16:14:00.595Z,16.18
2023-05-17T16:16:27.254Z,16.34
2023-05-17T16:18:54.235Z,16.57
2023-05-17T16:21:20.824Z,16.47
2023-05-17T16:23:47.632Z,16.26
2023-05-17T16:26:14.575Z,16.27
2023-05-17T16:28:41.147Z,16.00
2023-05-17T16:31:07.894Z,16.03
2023-05-17T16:33:34.541Z,16.13
2023-05-17T16:36:01.149Z,16.38
2023-05-17T16:38:27.639Z,15.93
2023-05-17T16:40:54.284Z,16.06
2023-05-17T16:43:20.758Z,16.17
2023-05-17T16:45:47.326Z,16.12
2023-05-17T16:48:15.064Z,15.85
2023-05-17T16:50:42.223Z,16.12
2023-05-17T16:53:08.796Z,16.08
2023-05-17T16:55:36.644Z,15.77
2023-05-17T16:58:03.660Z,15.76
2023-05-17T17:00:31.021Z,15.65
2023-05-17T17:02:59.290Z,16.01
2023-05-17T17:05:27.199Z,15.77
2023-05-17T17:07:54.075Z,15.74
2023-05-17T17:10:21.127Z,15.60
2023-05-17T17:12:48.127Z,15.82
2023-05-17T17:15:15.591Z,15.64
2023-05-17T17:17:42.691Z,15.61
2023-05-17T17:20:09.842Z,15.83
2023-05-17T17:22:36.326Z,15.65
2023-05-17T17:25:03.032Z,15.48
2023-05-17T17:27:29.596Z,15.32
2023-05-17T17:29:56.181Z,15.50
2023-05-17T17:32:22.788Z,15.47
2023-05-17T17:34:49.355Z,15.41
2023-05-17T17:37:15.968Z,15.17
2023-05-17T17:39:42.644Z,14.78
2023-05-17T17:42:10.609Z,15.06
2023-05-17T17:44:37.329Z,14.99
2023-05-17T17:47:04.091Z,15.01
2023-05-17T17:49:30.752Z,14.75
2023-05-17T17:51:58.241Z,14.84
2023-05-17T17:54:24.788Z,14.83
2023-05-17T17:56:51.316Z,14.98
2023-05-17T17:59:17.816Z,14.48
2023-05-17T18:01:44.385Z,14.60
2023-05-17T18:04:11.278Z,14.45
2023-05-17T18:06:40.019Z,14.35
2023-05-17T18:09:06.562Z,14.37
2023-05-17T18:11:33.069Z,14.45
2023-05-17T18:13:59.611Z,14.29
2023-05-17T18:16:26.202Z,14.08
2023-05-17T18:18:52.768Z,14.16
2023-05-17T18:21:19.395Z,14.03
2023-05-17T18:23:46.186Z,14.13
2023-05-17T18:26:12.694Z,14.01
2023-05-17T18:28:42.870Z,13.85
2023-05-17T18:31:10.094Z,13.81
2023-05-17T18:33:36.701Z,13.88
2023-05-17T18:36:03.427Z,13.88
2023-05-17T18:38:29.971Z,13.84
2023-05-17T18:40:56.493Z,13.63
2023-05-17T18:43:23.094Z,13.69
2023-05-17T18:45:49.623Z,13.59
2023-05-17T18:48:16.164Z,13.46
2023-05-17T18:50:42.702Z,13.44
2023-05-17T18:53:09.869Z,13.05
2023-05-17T18:55:36.540Z,13.30
2023-05-17T18:58:02.997Z,13.18
2023-05-17T19:00:29.688Z,13.21
2023-05-17T19:02:56.378Z,12.93
2023-05-17T19:05:22.932Z,12.96
2023-05-17T19:07:49.455Z,12.92
2023-05-17T19:10:16.056Z,12.85
2023-05-17T19:12:45.603Z,12.78
2023-05-17T19:15:12.554Z,12.74
2023-05-17T19:17:39.147Z,12.76
2023-05-17T19:20:06.548Z,12.61
2023-05-17T19:22:35.453Z,12.59
2023-05-17T19:25:02.004Z,12.48
2023-05-17T19:27:28.498Z,12.56
2023-05-17T19:29:55.234Z,12.50
2023-05-17T19:32:22.901Z,12.45
2023-05-17T19:34:49.856Z,12.33
2023-05-17T19:37:16.739Z,12.26
2023-05-17T19:39:43.291Z,12.25
2023-05-17T19:42:09.975Z,12.24
2023-05-17T19:44:36.499Z,12.17
2023-05-17T19:47:02.983Z,11.84
2023-05-17T19:49:29.607Z,11.90
2023-05-17T19:52:00.556Z,11.95
2023-05-17T19:54:30.664Z,11.93
2023-05-17T19:56:58.293Z,11.83
2023-05-17T19:59:25.022Z,11.77
2023-05-17T20:01:51.672Z,11.66
2023-05-17T20:04:18.168Z,11.72
2023-05-17T20:06:44.663Z,11.68
2023-05-17T20:09:11.298Z,11.55
2023-05-17T20:11:37.974Z,11.50
2023-05-17T20:14:04.534Z,11.41
2023-05-17T20:16:31.361Z,11.31
2023-05-17T20:18:58.530Z,11.26
2023-05-17T20:21:26.307Z,11.06
2023-05-17T20:24:00.594Z,11.03
2023-05-17T20:26:31.842Z,10.93
2023-05-17T20:29:01.564Z,10.89
2023-05-17T20:31:28.130Z,11.02
2023-05-17T20:33:54.953Z,10.86
2023-05-17T20:36:21.454Z,10.86
2023-05-17T20:38:47.953Z,10.70
2023-05-17T20:41:15.978Z,10.83
2023-05-17T20:43:46.648Z,10.86
2023-05-17T20:46:13.927Z,10.69
2023-05-17T20:48:42.940Z,10.72
2023-05-17T20:51:10.319Z,10.59
2023-05-17T20:53:37.402Z,10.67
2023-05-17T20:56:03.970Z,10.56
2023-05-17T20:58:30.492Z,10.39
2023-05-17T21:00:58.076Z,10.47
2023-05-17T21:03:28.255Z,10.47
2023-05-17T21:05:55.671Z,10.39
2023-05-17T21:08:22.818Z,10.36
2023-05-17T21:10:50.077Z,10.28
2023-05-17T21:13:16.666Z,10.31
2023-05-17T21:15:43.230Z,10.37
2023-05-17T21:18:10.872Z,10.22
2023-05-17T21:20:38.767Z,10.13
2023-05-17T21:23:05.505Z,9.94
2023-05-17T21:25:32.341Z,9.78
2023-05-17T21:27:59.117Z,9.81
2023-05-17T21:30:25.937Z,9.88
2023-05-17T21:32:52.403Z,9.81
2023-05-17T21:35:19.059Z,9.92
2023-05-17T21:37:45.550Z,9.62
2023-05-17T21:40:12.235Z,9.58
2023-05-17T21:42:38.771Z,9.81
2023-05-17T21:45:06.006Z,9.67
2023-05-17T21:47:32.589Z,9.66
2023-05-17T21:49:59.274Z,9.60
2023-05-17T21:52:25.975Z,9.46
2023-05-17T21:54:52.440Z,9.41
2023-05-17T21:57:21.147Z,9.44
2023-05-17T21:59:48.952Z,9.41
2023-05-17T22:02:15.505Z,9.50
2023-05-17T22:04:42.047Z,9.54
2023-05-17T22:07:09.645Z,9.50
2023-05-17T22:09:36.964Z,9.53
2023-05-17T22:12:04.946Z,9.51
2023-05-17T22:14:35.191Z,9.42
2023-05-17T22:17:03.078Z,9.26
2023-05-17T22:19:30.354Z,9.31
2023-05-17T22:21:57.029Z,9.27
2023-05-17T22:24:23.583Z,9.30
2023-05-17T22:26:50.100Z,9.08
2023-05-17T22:29:16.602Z,9.03
2023-05-17T22:31:43.175Z,8.93
2023-05-17T22:34:09.684Z,9.12
2023-05-17T22:36:36.136Z,9.27
2023-05-17T22:39:02.759Z,9.27
2023-05-17T22:41:29.565Z,9.17
2023-05-17T22:43:56.115Z,9.10
2023-05-17T22:46:22.825Z,8.96
2023-05-17T22:48:50.156Z,8.88
2023-05-17T22:51:18.552Z,8.92
2023-05-17T22:53:45.258Z,8.95
2023-05-17T22:56:11.816Z,8.94
2023-05-17T22:58:38.355Z,8.97
2023-05-17T23:01:05.171Z,8.81
2023-05-17T23:03:32.225Z,8.86
2023-05-17T23:06:05.177Z,8.87
2023-05-17T23:08:32.293Z,8.83
2023-05-17T23:10:59.079Z,8.65
2023-05-17T23:13:26.274Z,8.57
2023-05-17T23:15:53.462Z,8.71
2023-05-17T23:18:20.036Z,8.46
2023-05-17T23:20:48.844Z,8.38
2023-05-17T23:23:15.943Z,8.47
2023-05-17T23:25:42.578Z,8.60
2023-05-17T23:28:09.707Z,8.45
2023-05-17T23:30:38.514Z,8.49
2023-05-17T23:33:05.027Z,8.31
2023-05-17T23:35:31.933Z,8.40
2023-05-17T23:37:58.577Z,8.29
2023-05-17T23:40:25.047Z,8.27
2023-05-17T23:42:51.530Z,8.40
2023-05-17T23:45:18.173Z,8.32
2023-05-17T23:47:47.522Z,8.21
2023-05-17T23:50:14.151Z,8.24
2023-05-17T23:52:40.649Z,8.34
2023-05-17T23:55:07.497Z,8.20
2023-05-17T23:57:35.148Z,8.16
